sensor_id;sensor_type;location;lat;lon;timestamp;pressure;altitude;pressure_sealevel;temperature;humidity
64698;BME280;51124;53.394;-6.294;2023-03-15T00:00:10;100675.25;;;15.02;8.40
64698;BME280;51124;53.394;-6.294;2023-03-15T00:02:37;100679.51;;;13.77;8.59
64698;BME280;51124;53.394;-6.294;2023-03-15T00:05:06;100685.45;;;14.33;8.58
64698;BME280;51124;53.394;-6.294;2023-03-15T00:07:33;100695.98;;;15.22;8.48
64698;BME280;51124;53.394;-6.294;2023-03-15T00:10:00;100705.62;;;14.48;8.54
64698;BME280;51124;53.394;-6.294;2023-03-15T00:12:28;100706.22;;;15.08;8.42
64698;BME280;51124;53.394;-6.294;2023-03-15T00:14:55;100714.96;;;14.68;8.58
64698;BME280;51124;53.394;-6.294;2023-03-15T00:17:23;100718.74;;;14.58;8.66
64698;BME280;51124;53.394;-6.294;2023-03-15T00:19:50;100715.87;;;15.36;8.61
64698;BME280;51124;53.394;-6.294;2023-03-15T00:22:17;100717.19;;;14.65;8.68
64698;BME280;51124;53.394;-6.294;2023-03-15T00:24:45;100721.54;;;14.57;8.79
64698;BME280;51124;53.394;-6.294;2023-03-15T00:27:12;100719.26;;;14.00;8.59
64698;BME280;51124;53.394;-6.294;2023-03-15T00:29:39;100713.25;;;14.07;8.59
64698;BME280;51124;53.394;-6.294;2023-03-15T00:32:07;100706.73;;;14.34;8.48
64698;BME280;51124;53.394;-6.294;2023-03-15T00:34:34;100697.99;;;14.38;8.37
64698;BME280;51124;53.394;-6.294;2023-03-15T00:37:02;100696.71;;;14.31;8.42
64698;BME280;51124;53.394;-6.294;2023-03-15T00:39:29;100697.50;;;17.91;8.59
64698;BME280;51124;53.394;-6.294;2023-03-15T00:41:57;100690.15;;;16.94;9.11
64698;BME280;51124;53.394;-6.294;2023-03-15T00:44:25;100688.87;;;15.36;9.43
64698;BME280;51124;53.394;-6.294;2023-03-15T00:46:52;100688.15;;;18.03;9.22
64698;BME280;51124;53.394;-6.294;2023-03-15T00:49:20;100693.82;;;18.48;9.64
64698;BME280;51124;53.394;-6.294;2023-03-15T00:51:48;100692.75;;;17.84;10.19
64698;BME280;51124;53.394;-6.294;2023-03-15T00:54:15;100693.22;;;16.70;10.54
64698;BME280;51124;53.394;-6.294;2023-03-15T00:56:43;100693.82;;;17.67;10.47
64698;BME280;51124;53.394;-6.294;2023-03-15T00:59:11;100694.38;;;17.54;10.64
64698;BME280;51124;53.394;-6.294;2023-03-15T01:01:39;100697.06;;;17.35;10.80
64698;BME280;51124;53.394;-6.294;2023-03-15T01:04:07;100705.47;;;16.87;10.84
64698;BME280;51124;53.394;-6.294;2023-03-15T01:06:34;100702.79;;;16.76;11.08
64698;BME280;51124;53.394;-6.294;2023-03-15T01:09:02;100701.99;;;16.82;11.03
64698;BME280;51124;53.394;-6.294;2023-03-15T01:11:30;100699.89;;;17.24;10.96
64698;BME280;51124;53.394;-6.294;2023-03-15T01:13:59;100707.55;;;16.56;11.05
64698;BME280;51124;53.394;-6.294;2023-03-15T01:16:28;100711.90;;;16.76;11.14
64698;BME280;51124;53.394;-6.294;2023-03-15T01:18:56;100714.52;;;16.23;11.22
64698;BME280;51124;53.394;-6.294;2023-03-15T01:21:25;100716.81;;;16.97;11.13
64698;BME280;51124;53.394;-6.294;2023-03-15T01:23:53;100717.78;;;17.21;11.19
64698;BME280;51124;53.394;-6.294;2023-03-15T01:26:21;100717.10;;;17.35;11.20
64698;BME280;51124;53.394;-6.294;2023-03-15T01:28:50;100713.61;;;16.45;11.31
64698;BME280;51124;53.394;-6.294;2023-03-15T01:31:21;100711.56;;;16.49;11.28
64698;BME280;51124;53.394;-6.294;2023-03-15T01:33:49;100705.50;;;16.21;11.27
64698;BME280;51124;53.394;-6.294;2023-03-15T01:36:17;100698.76;;;16.06;11.30
64698;BME280;51124;53.394;-6.294;2023-03-15T01:38:45;100698.63;;;14.39;11.14
64698;BME280;51124;53.394;-6.294;2023-03-15T01:41:13;100699.84;;;14.22;10.54
64698;BME280;51124;53.394;-6.294;2023-03-15T01:43:41;100697.16;;;14.25;10.30
64698;BME280;51124;53.394;-6.294;2023-03-15T01:46:17;100695.71;;;14.63;10.01
64698;BME280;51124;53.394;-6.294;2023-03-15T01:48:39;100689.36;;;14.51;9.68
64698;BME280;51124;53.394;-6.294;2023-03-15T01:51:11;100690.96;;;13.80;9.76
64698;BME280;51124;53.394;-6.294;2023-03-15T01:53:41;100694.95;;;14.52;9.39
64698;BME280;51124;53.394;-6.294;2023-03-15T01:56:10;100692.99;;;14.42;9.20
64698;BME280;51124;53.394;-6.294;2023-03-15T01:58:39;100703.09;;;13.66;9.36
64698;BME280;51124;53.394;-6.294;2023-03-15T02:01:09;100702.29;;;13.72;9.12
64698;BME280;51124;53.394;-6.294;2023-03-15T02:03:39;100703.76;;;15.16;9.07
64698;BME280;51124;53.394;-6.294;2023-03-15T02:06:10;100711.62;;;14.45;9.06
64698;BME280;51124;53.394;-6.294;2023-03-15T02:08:40;100711.95;;;14.90;8.93
64698;BME280;51124;53.394;-6.294;2023-03-15T02:11:09;100706.52;;;14.05;8.99
64698;BME280;51124;53.394;-6.294;2023-03-15T02:13:37;100702.96;;;14.56;8.88
64698;BME280;51124;53.394;-6.294;2023-03-15T02:16:05;100702.55;;;13.97;8.88
64698;BME280;51124;53.394;-6.294;2023-03-15T02:18:33;100694.12;;;15.09;8.67
64698;BME280;51124;53.394;-6.294;2023-03-15T02:21:07;100695.85;;;14.29;8.75
64698;BME280;51124;53.394;-6.294;2023-03-15T02:23:29;100695.40;;;14.45;8.65
64698;BME280;51124;53.394;-6.294;2023-03-15T02:26:02;100697.08;;;14.07;8.78
64698;BME280;51124;53.394;-6.294;2023-03-15T02:28:31;100694.89;;;14.13;8.71
64698;BME280;51124;53.394;-6.294;2023-03-15T02:30:59;100690.48;;;14.14;8.63
64698;BME280;51124;53.394;-6.294;2023-03-15T02:33:28;100690.17;;;13.50;8.67
64698;BME280;51124;53.394;-6.294;2023-03-15T02:36:05;100688.40;;;15.11;8.58
64698;BME280;51124;53.394;-6.294;2023-03-15T02:38:22;100682.99;;;14.28;8.51
64698;BME280;51124;53.394;-6.294;2023-03-15T02:40:52;100673.98;;;13.48;8.54
64698;BME280;51124;53.394;-6.294;2023-03-15T02:43:22;100665.95;;;14.70;8.54
64698;BME280;51124;53.394;-6.294;2023-03-15T02:45:51;100663.50;;;13.61;8.52
64698;BME280;51124;53.394;-6.294;2023-03-15T02:48:19;100659.00;;;13.62;8.59
64698;BME280;51124;53.394;-6.294;2023-03-15T02:50:46;100656.97;;;13.58;8.60
64698;BME280;51124;53.394;-6.294;2023-03-15T02:53:14;100654.84;;;14.27;8.56
64698;BME280;51124;53.394;-6.294;2023-03-15T02:55:41;100650.45;;;14.06;8.49
64698;BME280;51124;53.394;-6.294;2023-03-15T02:58:08;100645.10;;;14.34;8.41
64698;BME280;51124;53.394;-6.294;2023-03-15T03:00:36;100646.55;;;13.92;8.45
64698;BME280;51124;53.394;-6.294;2023-03-15T03:03:03;100639.27;;;13.28;8.59
64698;BME280;51124;53.394;-6.294;2023-03-15T03:05:31;100634.48;;;14.29;8.59
64698;BME280;51124;53.394;-6.294;2023-03-15T03:07:58;100636.17;;;13.79;8.52
64698;BME280;51124;53.394;-6.294;2023-03-15T03:10:26;100634.69;;;14.51;8.46
64698;BME280;51124;53.394;-6.294;2023-03-15T03:12:53;100633.89;;;14.33;8.78
64698;BME280;51124;53.394;-6.294;2023-03-15T03:15:21;100630.92;;;14.09;8.62
64698;BME280;51124;53.394;-6.294;2023-03-15T03:17:48;100630.82;;;14.24;8.61
64698;BME280;51124;53.394;-6.294;2023-03-15T03:20:16;100626.84;;;14.88;8.61
64698;BME280;51124;53.394;-6.294;2023-03-15T03:22:44;100623.23;;;14.52;8.61
64698;BME280;51124;53.394;-6.294;2023-03-15T03:25:13;100618.20;;;14.83;8.67
64698;BME280;51124;53.394;-6.294;2023-03-15T03:27:40;100620.65;;;14.11;8.76
64698;BME280;51124;53.394;-6.294;2023-03-15T03:30:09;100614.50;;;14.79;8.40
64698;BME280;51124;53.394;-6.294;2023-03-15T03:32:38;100601.97;;;13.25;8.67
64698;BME280;51124;53.394;-6.294;2023-03-15T03:35:06;100596.44;;;13.14;8.57
64698;BME280;51124;53.394;-6.294;2023-03-15T03:37:34;100596.76;;;13.78;8.46
64698;BME280;51124;53.394;-6.294;2023-03-15T03:40:02;100592.15;;;14.31;8.55
64698;BME280;51124;53.394;-6.294;2023-03-15T03:42:29;100597.17;;;16.82;8.74
64698;BME280;51124;53.394;-6.294;2023-03-15T03:44:57;100600.76;;;16.75;9.20
64698;BME280;51124;53.394;-6.294;2023-03-15T03:47:24;100600.74;;;15.22;9.39
64698;BME280;51124;53.394;-6.294;2023-03-15T03:49:52;100604.60;;;13.95;9.39
64698;BME280;51124;53.394;-6.294;2023-03-15T03:52:20;100608.30;;;17.68;9.79
64698;BME280;51124;53.394;-6.294;2023-03-15T03:54:47;100609.73;;;17.93;9.79
64698;BME280;51124;53.394;-6.294;2023-03-15T03:57:15;100614.31;;;17.00;10.38
64698;BME280;51124;53.394;-6.294;2023-03-15T03:59:43;100610.48;;;16.37;10.76
64698;BME280;51124;53.394;-6.294;2023-03-15T04:02:11;100599.89;;;16.15;10.77
64698;BME280;51124;53.394;-6.294;2023-03-15T04:04:39;100597.52;;;16.62;10.74
64698;BME280;51124;53.394;-6.294;2023-03-15T04:07:06;100591.35;;;16.42;10.66
64698;BME280;51124;53.394;-6.294;2023-03-15T04:09:34;100590.44;;;16.49;10.88
64698;BME280;51124;53.394;-6.294;2023-03-15T04:12:02;100591.62;;;16.16;11.03
64698;BME280;51124;53.394;-6.294;2023-03-15T04:14:30;100592.86;;;16.03;10.94
64698;BME280;51124;53.394;-6.294;2023-03-15T04:16:58;100594.21;;;16.74;10.93
64698;BME280;51124;53.394;-6.294;2023-03-15T04:19:25;100591.99;;;16.32;10.99
64698;BME280;51124;53.394;-6.294;2023-03-15T04:21:53;100592.72;;;16.40;11.02
64698;BME280;51124;53.394;-6.294;2023-03-15T04:24:21;100595.23;;;16.27;11.03
64698;BME280;51124;53.394;-6.294;2023-03-15T04:26:49;100597.01;;;16.16;11.01
64698;BME280;51124;53.394;-6.294;2023-03-15T04:29:17;100595.87;;;16.41;10.95
64698;BME280;51124;53.394;-6.294;2023-03-15T04:31:45;100593.73;;;16.38;11.10
64698;BME280;51124;53.394;-6.294;2023-03-15T04:34:12;100589.35;;;16.53;10.98
64698;BME280;51124;53.394;-6.294;2023-03-15T04:36:40;100586.75;;;16.46;11.03
64698;BME280;51124;53.394;-6.294;2023-03-15T04:39:08;100588.69;;;16.09;11.15
64698;BME280;51124;53.394;-6.294;2023-03-15T04:41:35;100593.53;;;15.50;11.01
64698;BME280;51124;53.394;-6.294;2023-03-15T04:44:04;100603.40;;;14.41;10.63
64698;BME280;51124;53.394;-6.294;2023-03-15T04:46:31;100603.88;;;13.65;10.17
64698;BME280;51124;53.394;-6.294;2023-03-15T04:48:59;100601.91;;;14.03;9.96
64698;BME280;51124;53.394;-6.294;2023-03-15T04:51:26;100599.51;;;14.40;9.66
64698;BME280;51124;53.394;-6.294;2023-03-15T04:53:54;100594.61;;;14.25;9.64
64698;BME280;51124;53.394;-6.294;2023-03-15T04:56:21;100591.05;;;13.40;9.53
64698;BME280;51124;53.394;-6.294;2023-03-15T04:58:49;100583.69;;;13.86;9.18
64698;BME280;51124;53.394;-6.294;2023-03-15T05:01:16;100588.83;;;14.14;9.07
64698;BME280;51124;53.394;-6.294;2023-03-15T05:03:43;100589.98;;;13.84;9.09
64698;BME280;51124;53.394;-6.294;2023-03-15T05:06:11;100587.58;;;14.00;8.77
64698;BME280;51124;53.394;-6.294;2023-03-15T05:08:38;100589.30;;;14.38;8.98
64698;BME280;51124;53.394;-6.294;2023-03-15T05:11:06;100585.78;;;13.99;8.95
64698;BME280;51124;53.394;-6.294;2023-03-15T05:13:33;100585.02;;;14.43;8.90
64698;BME280;51124;53.394;-6.294;2023-03-15T05:16:00;100580.45;;;14.51;8.89
64698;BME280;51124;53.394;-6.294;2023-03-15T05:18:28;100577.96;;;13.76;8.65
64698;BME280;51124;53.394;-6.294;2023-03-15T05:20:55;100579.66;;;13.67;8.72
64698;BME280;51124;53.394;-6.294;2023-03-15T05:23:23;100580.20;;;13.58;8.71
64698;BME280;51124;53.394;-6.294;2023-03-15T05:25:51;100578.89;;;13.36;8.67
64698;BME280;51124;53.394;-6.294;2023-03-15T05:28:18;100578.24;;;13.76;8.51
64698;BME280;51124;53.394;-6.294;2023-03-15T05:30:46;100579.29;;;14.13;8.55
64698;BME280;51124;53.394;-6.294;2023-03-15T05:33:13;100578.14;;;13.93;8.58
64698;BME280;51124;53.394;-6.294;2023-03-15T05:35:41;100573.89;;;14.16;8.44
64698;BME280;51124;53.394;-6.294;2023-03-15T05:38:08;100577.44;;;14.00;8.40
64698;BME280;51124;53.394;-6.294;2023-03-15T05:40:36;100575.29;;;13.82;8.47
64698;BME280;51124;53.394;-6.294;2023-03-15T05:43:03;100570.91;;;14.30;8.42
64698;BME280;51124;53.394;-6.294;2023-03-15T05:45:30;100569.57;;;14.60;8.45
64698;BME280;51124;53.394;-6.294;2023-03-15T05:47:57;100567.78;;;13.32;8.53
64698;BME280;51124;53.394;-6.294;2023-03-15T05:50:25;100567.32;;;13.36;8.46
64698;BME280;51124;53.394;-6.294;2023-03-15T05:52:52;100562.60;;;13.95;8.27
64698;BME280;51124;53.394;-6.294;2023-03-15T05:55:20;100564.41;;;13.86;8.40
64698;BME280;51124;53.394;-6.294;2023-03-15T05:57:47;100564.69;;;13.89;8.45
64698;BME280;51124;53.394;-6.294;2023-03-15T06:00:15;100561.43;;;14.06;8.46
64698;BME280;51124;53.394;-6.294;2023-03-15T06:02:45;100559.80;;;14.42;8.36
64698;BME280;51124;53.394;-6.294;2023-03-15T06:05:12;100557.48;;;13.78;8.54
64698;BME280;51124;53.394;-6.294;2023-03-15T06:07:39;100553.53;;;14.84;8.21
64698;BME280;51124;53.394;-6.294;2023-03-15T06:10:08;100551.06;;;13.68;8.43
64698;BME280;51124;53.394;-6.294;2023-03-15T06:12:35;100543.46;;;13.55;8.50
64698;BME280;51124;53.394;-6.294;2023-03-15T06:15:02;100532.93;;;14.60;8.40
64698;BME280;51124;53.394;-6.294;2023-03-15T06:17:30;100533.39;;;13.84;8.58
64698;BME280;51124;53.394;-6.294;2023-03-15T06:19:57;100532.19;;;13.73;8.54
64698;BME280;51124;53.394;-6.294;2023-03-15T06:22:24;100530.83;;;13.73;8.55
64698;BME280;51124;53.394;-6.294;2023-03-15T06:24:52;100525.01;;;14.49;8.37
64698;BME280;51124;53.394;-6.294;2023-03-15T06:27:19;100521.05;;;14.47;8.36
64698;BME280;51124;53.394;-6.294;2023-03-15T06:29:46;100522.06;;;14.45;8.49
64698;BME280;51124;53.394;-6.294;2023-03-15T06:32:14;100516.69;;;15.10;8.34
64698;BME280;51124;53.394;-6.294;2023-03-15T06:34:41;100519.29;;;12.52;8.55
64698;BME280;51124;53.394;-6.294;2023-03-15T06:37:09;100513.42;;;13.55;8.45
64698;BME280;51124;53.394;-6.294;2023-03-15T06:39:36;100510.07;;;13.77;8.42
64698;BME280;51124;53.394;-6.294;2023-03-15T06:42:03;100512.82;;;13.66;8.48
64698;BME280;51124;53.394;-6.294;2023-03-15T06:44:31;100506.09;;;15.15;8.30
64698;BME280;51124;53.394;-6.294;2023-03-15T06:46:58;100505.77;;;16.45;8.85
64698;BME280;51124;53.394;-6.294;2023-03-15T06:49:26;100510.72;;;15.84;9.27
64698;BME280;51124;53.394;-6.294;2023-03-15T06:51:53;100509.94;;;15.04;9.07
64698;BME280;51124;53.394;-6.294;2023-03-15T06:54:21;100507.73;;;17.59;9.17
64698;BME280;51124;53.394;-6.294;2023-03-15T06:56:48;100510.71;;;17.91;9.57
64698;BME280;51124;53.394;-6.294;2023-03-15T06:59:16;100510.41;;;16.58;10.09
64698;BME280;51124;53.394;-6.294;2023-03-15T07:01:44;100508.55;;;17.59;10.18
64698;BME280;51124;53.394;-6.294;2023-03-15T07:04:12;100505.81;;;16.30;10.52
64698;BME280;51124;53.394;-6.294;2023-03-15T07:06:40;100501.76;;;16.69;10.45
64698;BME280;51124;53.394;-6.294;2023-03-15T07:09:07;100501.64;;;17.41;10.35
64698;BME280;51124;53.394;-6.294;2023-03-15T07:11:35;100501.89;;;16.52;10.69
64698;BME280;51124;53.394;-6.294;2023-03-15T07:14:03;100499.50;;;16.97;10.54
64698;BME280;51124;53.394;-6.294;2023-03-15T07:16:31;100496.82;;;16.31;10.66
64698;BME280;51124;53.394;-6.294;2023-03-15T07:18:59;100489.81;;;16.59;10.67
64698;BME280;51124;53.394;-6.294;2023-03-15T07:21:27;100484.51;;;16.02;10.75
64698;BME280;51124;53.394;-6.294;2023-03-15T07:23:55;100478.48;;;16.47;10.69
64698;BME280;51124;53.394;-6.294;2023-03-15T07:26:23;100477.68;;;16.38;10.63
64698;BME280;51124;53.394;-6.294;2023-03-15T07:28:50;100473.10;;;16.48;10.71
64698;BME280;51124;53.394;-6.294;2023-03-15T07:31:18;100471.62;;;16.45;10.66
64698;BME280;51124;53.394;-6.294;2023-03-15T07:33:46;100470.80;;;16.21;10.65
64698;BME280;51124;53.394;-6.294;2023-03-15T07:36:13;100470.45;;;16.45;10.69
64698;BME280;51124;53.394;-6.294;2023-03-15T07:38:41;100472.94;;;16.71;10.46
64698;BME280;51124;53.394;-6.294;2023-03-15T07:41:09;100475.45;;;16.70;10.60
64698;BME280;51124;53.394;-6.294;2023-03-15T07:43:37;100479.66;;;17.55;10.35
64698;BME280;51124;53.394;-6.294;2023-03-15T07:46:04;100478.34;;;16.15;10.30
64698;BME280;51124;53.394;-6.294;2023-03-15T07:48:32;100471.07;;;15.60;9.97
64698;BME280;51124;53.394;-6.294;2023-03-15T07:51:00;100465.40;;;15.82;9.52
64698;BME280;51124;53.394;-6.294;2023-03-15T07:53:27;100459.96;;;15.69;9.23
64698;BME280;51124;53.394;-6.294;2023-03-15T07:55:54;100460.26;;;15.37;8.90
64698;BME280;51124;53.394;-6.294;2023-03-15T07:58:22;100461.21;;;16.40;8.80
64698;BME280;51124;53.394;-6.294;2023-03-15T08:00:49;100464.05;;;15.63;8.47
64698;BME280;51124;53.394;-6.294;2023-03-15T08:03:17;100466.55;;;15.98;8.34
64698;BME280;51124;53.394;-6.294;2023-03-15T08:05:44;100461.57;;;16.29;8.14
64698;BME280;51124;53.394;-6.294;2023-03-15T08:08:12;100455.60;;;16.97;8.00
64698;BME280;51124;53.394;-6.294;2023-03-15T08:10:39;100453.32;;;16.87;7.89
64698;BME280;51124;53.394;-6.294;2023-03-15T08:13:07;100451.00;;;16.36;8.06
64698;BME280;51124;53.394;-6.294;2023-03-15T08:15:34;100454.08;;;16.06;8.03
64698;BME280;51124;53.394;-6.294;2023-03-15T08:18:01;100454.73;;;16.52;7.91
64698;BME280;51124;53.394;-6.294;2023-03-15T08:20:29;100458.86;;;17.36;7.88
64698;BME280;51124;53.394;-6.294;2023-03-15T08:22:56;100457.93;;;16.12;7.99
64698;BME280;51124;53.394;-6.294;2023-03-15T08:25:25;100455.81;;;14.74;8.07
64698;BME280;51124;53.394;-6.294;2023-03-15T08:27:53;100452.57;;;15.90;7.82
64698;BME280;51124;53.394;-6.294;2023-03-15T08:30:21;100450.18;;;15.06;7.96
64698;BME280;51124;53.394;-6.294;2023-03-15T08:32:50;100445.80;;;16.70;7.82
64698;BME280;51124;53.394;-6.294;2023-03-15T08:35:19;100445.48;;;16.31;7.88
64698;BME280;51124;53.394;-6.294;2023-03-15T08:37:47;100444.17;;;15.71;8.05
64698;BME280;51124;53.394;-6.294;2023-03-15T08:40:15;100446.94;;;16.27;7.89
64698;BME280;51124;53.394;-6.294;2023-03-15T08:42:43;100445.09;;;15.25;7.81
64698;BME280;51124;53.394;-6.294;2023-03-15T08:45:11;100443.34;;;16.04;7.84
64698;BME280;51124;53.394;-6.294;2023-03-15T08:47:38;100442.89;;;14.95;7.90
64698;BME280;51124;53.394;-6.294;2023-03-15T08:50:08;100440.03;;;15.27;7.89
64698;BME280;51124;53.394;-6.294;2023-03-15T08:52:36;100436.18;;;15.47;7.73
64698;BME280;51124;53.394;-6.294;2023-03-15T08:55:04;100435.23;;;15.27;8.04
64698;BME280;51124;53.394;-6.294;2023-03-15T08:57:32;100427.14;;;15.60;8.00
64698;BME280;51124;53.394;-6.294;2023-03-15T09:00:00;100424.68;;;14.96;7.89
64698;BME280;51124;53.394;-6.294;2023-03-15T09:02:28;100422.49;;;16.55;7.60
64698;BME280;51124;53.394;-6.294;2023-03-15T09:04:55;100426.26;;;15.90;7.75
64698;BME280;51124;53.394;-6.294;2023-03-15T09:07:22;100429.42;;;15.78;7.94
64698;BME280;51124;53.394;-6.294;2023-03-15T09:09:50;100427.74;;;16.24;7.82
64698;BME280;51124;53.394;-6.294;2023-03-15T09:12:17;100421.85;;;15.49;7.94
64698;BME280;51124;53.394;-6.294;2023-03-15T09:14:45;100418.92;;;15.47;8.08
64698;BME280;51124;53.394;-6.294;2023-03-15T09:17:13;100416.21;;;16.19;7.98
64698;BME280;51124;53.394;-6.294;2023-03-15T09:19:40;100414.76;;;15.59;7.99
64698;BME280;51124;53.394;-6.294;2023-03-15T09:22:08;100410.11;;;16.33;8.10
64698;BME280;51124;53.394;-6.294;2023-03-15T09:24:35;100407.44;;;15.07;8.18
64698;BME280;51124;53.394;-6.294;2023-03-15T09:27:02;100407.50;;;15.35;7.93
64698;BME280;51124;53.394;-6.294;2023-03-15T09:29:30;100404.56;;;16.43;7.99
64698;BME280;51124;53.394;-6.294;2023-03-15T09:31:57;100405.41;;;15.03;8.08
64698;BME280;51124;53.394;-6.294;2023-03-15T09:34:25;100405.03;;;19.03;8.15
64698;BME280;51124;53.394;-6.294;2023-03-15T09:36:53;100402.94;;;18.56;9.08
64698;BME280;51124;53.394;-6.294;2023-03-15T09:39:21;100401.71;;;17.03;9.40
64698;BME280;51124;53.394;-6.294;2023-03-15T09:41:51;100394.75;;;14.08;9.11
64698;BME280;51124;53.394;-6.294;2023-03-15T09:44:37;100388.20;;;15.63;8.60
64698;BME280;51124;53.394;-6.294;2023-03-15T09:47:06;100384.67;;;15.46;8.34
64698;BME280;51124;53.394;-6.294;2023-03-15T09:49:33;100383.74;;;15.55;8.27
64698;BME280;51124;53.394;-6.294;2023-03-15T09:51:58;100377.72;;;15.24;8.24
64698;BME280;51124;53.394;-6.294;2023-03-15T09:54:31;100371.57;;;15.37;8.16
64698;BME280;51124;53.394;-6.294;2023-03-15T09:57:03;100369.78;;;17.81;8.17
64698;BME280;51124;53.394;-6.294;2023-03-15T09:59:34;100366.94;;;18.31;8.69
64698;BME280;51124;53.394;-6.294;2023-03-15T10:02:14;100360.58;;;17.67;8.95
64698;BME280;51124;53.394;-6.294;2023-03-15T10:04:35;100357.33;;;15.26;9.08
64698;BME280;51124;53.394;-6.294;2023-03-15T10:07:05;100353.67;;;19.12;8.91
64698;BME280;51124;53.394;-6.294;2023-03-15T10:09:35;100344.46;;;18.64;9.47
64698;BME280;51124;53.394;-6.294;2023-03-15T10:12:07;100346.41;;;18.36;9.68
64698;BME280;51124;53.394;-6.294;2023-03-15T10:14:54;100343.52;;;17.60;9.97
64698;BME280;51124;53.394;-6.294;2023-03-15T10:17:06;100341.07;;;18.06;10.12
64698;BME280;51124;53.394;-6.294;2023-03-15T10:19:43;100336.87;;;17.82;10.20
64698;BME280;51124;53.394;-6.294;2023-03-15T10:22:13;100329.89;;;18.66;10.14
64698;BME280;51124;53.394;-6.294;2023-03-15T10:24:36;100327.36;;;17.90;10.25
64698;BME280;51124;53.394;-6.294;2023-03-15T10:27:14;100319.36;;;18.12;10.22
64698;BME280;51124;53.394;-6.294;2023-03-15T10:29:36;100313.07;;;17.73;10.43
64698;BME280;51124;53.394;-6.294;2023-03-15T10:32:06;100310.33;;;17.66;10.40
64698;BME280;51124;53.394;-6.294;2023-03-15T10:34:31;100307.57;;;18.36;10.30
64698;BME280;51124;53.394;-6.294;2023-03-15T10:36:58;100305.96;;;18.01;10.39
64698;BME280;51124;53.394;-6.294;2023-03-15T10:39:26;100302.45;;;17.98;10.34
64698;BME280;51124;53.394;-6.294;2023-03-15T10:41:54;100303.36;;;18.20;10.29
64698;BME280;51124;53.394;-6.294;2023-03-15T10:44:24;100304.35;;;18.29;10.34
64698;BME280;51124;53.394;-6.294;2023-03-15T10:47:02;100302.21;;;17.81;10.46
64698;BME280;51124;53.394;-6.294;2023-03-15T10:49:20;100296.97;;;17.81;10.62
64698;BME280;51124;53.394;-6.294;2023-03-15T10:51:49;100290.61;;;17.13;10.45
64698;BME280;51124;53.394;-6.294;2023-03-15T10:54:19;100279.93;;;15.00;10.33
64698;BME280;51124;53.394;-6.294;2023-03-15T10:56:49;100277.34;;;15.15;9.92
64698;BME280;51124;53.394;-6.294;2023-03-15T10:59:20;100272.00;;;15.57;9.43
64698;BME280;51124;53.394;-6.294;2023-03-15T11:01:50;100267.97;;;14.86;9.31
64698;BME280;51124;53.394;-6.294;2023-03-15T11:04:20;100261.43;;;16.27;9.11
64698;BME280;51124;53.394;-6.294;2023-03-15T11:06:50;100255.18;;;15.18;9.21
64698;BME280;51124;53.394;-6.294;2023-03-15T11:09:16;100249.85;;;15.25;9.00
64698;BME280;51124;53.394;-6.294;2023-03-15T11:11:54;100245.83;;;15.35;8.74
64698;BME280;51124;53.394;-6.294;2023-03-15T11:14:13;100241.72;;;15.66;8.72
64698;BME280;51124;53.394;-6.294;2023-03-15T11:16:40;100237.42;;;15.81;8.63
64698;BME280;51124;53.394;-6.294;2023-03-15T11:19:14;100234.00;;;15.32;8.72
64698;BME280;51124;53.394;-6.294;2023-03-15T11:21:43;100226.61;;;15.60;8.66
64698;BME280;51124;53.394;-6.294;2023-03-15T11:24:24;100218.22;;;14.62;8.60
64698;BME280;51124;53.394;-6.294;2023-03-15T11:26:42;100212.65;;;15.36;8.61
64698;BME280;51124;53.394;-6.294;2023-03-15T11:29:18;100201.87;;;15.55;8.44
64698;BME280;51124;53.394;-6.294;2023-03-15T11:31:36;100195.09;;;14.92;8.40
64698;BME280;51124;53.394;-6.294;2023-03-15T11:34:08;100196.47;;;14.56;8.41
64698;BME280;51124;53.394;-6.294;2023-03-15T11:36:42;100191.94;;;15.73;8.20
64698;BME280;51124;53.394;-6.294;2023-03-15T11:39:14;100184.95;;;14.53;8.32
64698;BME280;51124;53.394;-6.294;2023-03-15T11:41:38;100183.60;;;15.28;8.28
64698;BME280;51124;53.394;-6.294;2023-03-15T11:44:15;100178.92;;;15.03;8.27
64698;BME280;51124;53.394;-6.294;2023-03-15T11:46:42;100175.90;;;15.05;8.31
64698;BME280;51124;53.394;-6.294;2023-03-15T11:49:08;100168.42;;;14.48;8.40
64698;BME280;51124;53.394;-6.294;2023-03-15T11:51:31;100164.94;;;14.98;8.47
64698;BME280;51124;53.394;-6.294;2023-03-15T11:54:06;100159.08;;;14.52;8.41
64698;BME280;51124;53.394;-6.294;2023-03-15T11:56:26;100154.07;;;14.67;8.25
64698;BME280;51124;53.394;-6.294;2023-03-15T11:59:07;100152.60;;;14.54;8.34
64698;BME280;51124;53.394;-6.294;2023-03-15T12:01:26;100152.40;;;15.05;8.17
64698;BME280;51124;53.394;-6.294;2023-03-15T12:04:36;100147.78;;;15.61;8.14
64698;BME280;51124;53.394;-6.294;2023-03-15T12:06:41;100138.55;;;14.09;8.26
64698;BME280;51124;53.394;-6.294;2023-03-15T12:08:58;100139.70;;;14.31;8.36
64698;BME280;51124;53.394;-6.294;2023-03-15T12:11:42;100136.69;;;15.50;8.27
64698;BME280;51124;53.394;-6.294;2023-03-15T12:14:08;100134.63;;;15.10;8.21
64698;BME280;51124;53.394;-6.294;2023-03-15T12:16:27;100127.26;;;14.20;8.28
64698;BME280;51124;53.394;-6.294;2023-03-15T12:18:58;100117.79;;;14.21;8.45
64698;BME280;51124;53.394;-6.294;2023-03-15T12:21:33;100114.42;;;15.03;8.19
64698;BME280;51124;53.394;-6.294;2023-03-15T12:23:59;100111.13;;;14.92;8.17
64698;BME280;51124;53.394;-6.294;2023-03-15T12:26:41;100107.37;;;14.74;8.24
64698;BME280;51124;53.394;-6.294;2023-03-15T12:29:12;100094.30;;;15.56;8.18
64698;BME280;51124;53.394;-6.294;2023-03-15T12:31:47;100090.06;;;14.21;8.49
64698;BME280;51124;53.394;-6.294;2023-03-15T12:34:05;100077.94;;;14.89;8.27
64698;BME280;51124;53.394;-6.294;2023-03-15T12:36:36;100070.26;;;15.36;8.25
64698;BME280;51124;53.394;-6.294;2023-03-15T12:39:34;100063.76;;;14.01;8.46
64698;BME280;51124;53.394;-6.294;2023-03-15T12:41:37;100050.19;;;15.46;8.30
64698;BME280;51124;53.394;-6.294;2023-03-15T12:44:26;100052.42;;;14.93;8.55
64698;BME280;51124;53.394;-6.294;2023-03-15T12:47:05;100042.82;;;14.97;8.44
64698;BME280;51124;53.394;-6.294;2023-03-15T12:49:08;100031.92;;;14.96;8.33
64698;BME280;51124;53.394;-6.294;2023-03-15T12:51:52;100024.85;;;14.99;8.13